Time;durP1;ratioP1;P1;durP2;ratioP2;P2;SDS_P1;SDS_P2;PMS_P1;PMS_P2;Temp;Humidity;BMP_temperature;BMP_pressure;BME280_temperature;BME280_humidity;BME280_pressure;Samples;Min_cycle;Max_cycle;Signal;HPM_P1;HPM_P2
2023/04/07 00:01:51;;;;;;;12.10;7.97;;;8.90;99.90;;;;;;5003008;28;20576;-81
2023/04/07 00:04:18;;;;;;;10.90;8.00;;;8.90;99.90;;;;;;5003475;28;20557;-82
2023/04/07 00:06:45;;;;;;;10.67;9.57;;;8.90;99.90;;;;;;5004188;28;20546;-81
2023/04/07 00:09:13;;;;;;;8.40;7.37;;;8.90;99.90;;;;;;5003658;28;20545;-80
2023/04/07 00:11:40;;;;;;;8.33;7.47;;;8.90;99.90;;;;;;5019298;28;20469;-80
2023/04/07 00:14:07;;;;;;;11.00;8.60;;;8.90;99.90;;;;;;5016986;28;20500;-80
2023/04/07 00:16:33;;;;;;;10.27;9.10;;;8.90;99.90;;;;;;5003261;28;20490;-83
2023/04/07 00:19:00;;;;;;;9.43;8.07;;;8.80;99.90;;;;;;5016345;28;20459;-81
2023/04/07 00:21:27;;;;;;;9.40;7.77;;;8.90;99.90;;;;;;5018064;28;20555;-82
2023/04/07 00:23:54;;;;;;;10.13;8.70;;;8.90;99.90;;;;;;5023291;28;21106;-82
2023/04/07 00:26:22;;;;;;;10.90;7.60;;;8.90;99.90;;;;;;5023236;28;20547;-81
2023/04/07 00:28:49;;;;;;;11.00;8.77;;;9.00;99.90;;;;;;5023691;28;20457;-81
2023/04/07 00:31:16;;;;;;;11.00;8.30;;;9.00;99.90;;;;;;5024201;28;20453;-82
2023/04/07 00:33:42;;;;;;;9.63;7.00;;;9.10;99.90;;;;;;5026723;28;20487;-81
2023/04/07 00:36:09;;;;;;;8.53;7.40;;;9.10;99.90;;;;;;5026383;28;20547;-82
2023/04/07 00:38:36;;;;;;;11.47;8.40;;;9.10;99.90;;;;;;5019088;28;20492;-81
2023/04/07 00:41:03;;;;;;;13.03;9.00;;;9.10;99.90;;;;;;5006482;28;20945;-81
2023/04/07 00:43:31;;;;;;;10.70;8.63;;;9.20;99.90;;;;;;5007370;28;20590;-81
2023/04/07 00:45:58;;;;;;;12.70;10.10;;;9.20;99.90;;;;;;5006031;28;20475;-81
2023/04/07 00:48:25;;;;;;;10.07;8.20;;;9.20;99.90;;;;;;5010983;28;20455;-83
2023/04/07 00:50:52;;;;;;;11.40;9.20;;;9.20;99.90;;;;;;5025240;28;20551;-81
2023/04/07 00:53:20;;;;;;;11.27;9.53;;;9.20;99.90;;;;;;5025856;28;20455;-80
2023/04/07 00:55:46;;;;;;;13.83;9.90;;;9.20;99.90;;;;;;5026261;28;20478;-80
2023/04/07 00:58:13;;;;;;;13.20;8.83;;;9.10;99.90;;;;;;5016223;28;20463;-83
2023/04/07 01:00:48;;;;;;;9.53;7.90;;;9.10;99.90;;;;;;5006043;28;20531;-80
2023/04/07 01:03:20;;;;;;;13.30;9.17;;;9.10;99.90;;;;;;5024667;28;20542;-80
2023/04/07 01:05:54;;;;;;;10.80;8.70;;;9.20;99.90;;;;;;5014467;28;20466;-80
2023/04/07 01:08:24;;;;;;;10.03;8.37;;;9.20;99.90;;;;;;5006422;28;20445;-81
2023/04/07 01:10:56;;;;;;;10.30;9.17;;;9.20;99.90;;;;;;5009570;28;20458;-80
2023/04/07 01:13:28;;;;;;;12.27;10.20;;;9.20;99.90;;;;;;5007118;28;20435;-80
2023/04/07 01:16:00;;;;;;;11.10;9.90;;;9.20;99.90;;;;;;5022127;28;20569;-80
2023/04/07 01:18:31;;;;;;;11.17;9.43;;;9.20;99.90;;;;;;5026171;28;20796;-80
2023/04/07 01:21:03;;;;;;;10.17;8.63;;;9.20;99.90;;;;;;5024262;28;20497;-80
2023/04/07 01:23:51;;;;;;;16.30;10.97;;;9.20;99.90;;;;;;5025314;28;21037;-80
2023/04/07 01:26:21;;;;;;;11.13;9.90;;;9.20;99.90;;;;;;5025003;28;20458;-81
2023/04/07 01:29:40;;;;;;;12.37;10.17;;;9.20;99.90;;;;;;5025299;28;20454;-80
2023/04/07 01:32:11;;;;;;;13.67;10.10;;;9.20;99.90;;;;;;4953958;29;20478;-79
2023/04/07 01:34:40;;;;;;;12.37;9.13;;;9.20;99.90;;;;;;5014611;28;20489;-79
2023/04/07 01:37:08;;;;;;;15.80;10.57;;;9.30;99.90;;;;;;5029175;28;20529;-81
2023/04/07 01:39:35;;;;;;;12.40;11.10;;;9.20;99.90;;;;;;5030314;28;20887;-78
2023/04/07 01:42:06;;;;;;;13.77;8.87;;;9.20;99.90;;;;;;5030290;28;20435;-79
2023/04/07 01:44:34;;;;;;;14.53;9.97;;;9.30;99.90;;;;;;5028488;28;20577;-79
2023/04/07 01:47:01;;;;;;;12.57;10.07;;;9.30;99.90;;;;;;5029722;28;20463;-81
2023/04/07 01:49:31;;;;;;;14.27;10.73;;;9.30;99.90;;;;;;5029053;28;20494;-80
2023/04/07 01:51:58;;;;;;;11.00;9.90;;;9.10;99.90;;;;;;5008658;28;20557;-80
2023/04/07 01:54:26;;;;;;;14.50;10.57;;;9.20;99.90;;;;;;5007625;28;20473;-80
2023/04/07 01:56:53;;;;;;;11.43;10.10;;;9.20;99.90;;;;;;5009704;28;20519;-80
2023/04/07 01:59:20;;;;;;;13.60;10.20;;;9.30;99.90;;;;;;5014457;28;20525;-81
2023/04/07 02:01:48;;;;;;;10.87;9.43;;;9.30;99.90;;;;;;5014169;28;20467;-81
2023/04/07 02:04:24;;;;;;;14.30;12.00;;;9.30;99.90;;;;;;5014745;28;20579;-79
2023/04/07 02:06:59;;;;;;;11.67;10.10;;;9.30;99.90;;;;;;5014658;28;20519;-81
2023/04/07 02:09:28;;;;;;;13.60;9.70;;;9.30;99.90;;;;;;5015046;28;20508;-86
2023/04/07 02:11:58;;;;;;;15.07;11.60;;;9.30;99.90;;;;;;5014089;28;20467;-82
2023/04/07 02:14:25;;;;;;;16.40;12.30;;;9.30;99.90;;;;;;5007498;28;20463;-82
2023/04/07 02:16:53;;;;;;;13.57;11.80;;;9.30;99.90;;;;;;5004179;28;20900;-79
2023/04/07 02:19:20;;;;;;;13.00;9.90;;;9.30;99.90;;;;;;5003342;28;20997;-79
2023/04/07 02:21:49;;;;;;;11.87;10.23;;;9.30;99.90;;;;;;5003145;28;20463;-79
2023/04/07 02:24:20;;;;;;;14.20;11.07;;;9.30;99.90;;;;;;5259000;22;20493;-77
2023/04/07 02:26:47;;;;;;;15.83;11.90;;;9.30;99.90;;;;;;5002416;28;20464;-78
2023/04/07 02:29:14;;;;;;;18.50;10.90;;;9.30;99.90;;;;;;5001954;28;20455;-78
2023/04/07 02:31:41;;;;;;;14.37;10.33;;;9.30;99.90;;;;;;5008917;28;20519;-79
2023/04/07 02:34:08;;;;;;;15.50;11.27;;;9.30;99.90;;;;;;5021878;28;20471;-79
2023/04/07 02:36:35;;;;;;;14.83;12.43;;;9.30;99.90;;;;;;5017339;28;20806;-79
2023/04/07 02:39:02;;;;;;;15.90;12.30;;;9.30;99.90;;;;;;5003305;28;21027;-79
2023/04/07 02:41:30;;;;;;;15.20;12.70;;;9.30;99.90;;;;;;5005370;28;20487;-79
2023/04/07 02:44:00;;;;;;;15.50;12.97;;;9.30;99.90;;;;;;5022180;28;20502;-79
2023/04/07 02:46:27;;;;;;;14.50;11.77;;;9.30;99.90;;;;;;5021849;28;20467;-79
2023/04/07 02:48:54;;;;;;;14.13;11.90;;;9.30;99.90;;;;;;5021245;28;20601;-80
2023/04/07 02:51:21;;;;;;;13.80;11.97;;;9.40;99.90;;;;;;5020226;28;20470;-80
2023/04/07 02:53:48;;;;;;;13.33;10.90;;;9.30;99.90;;;;;;5020641;28;20458;-78
2023/04/07 02:56:15;;;;;;;16.30;13.63;;;9.30;99.90;;;;;;5019620;28;20441;-79
2023/04/07 02:58:44;;;;;;;13.90;11.77;;;9.30;99.90;;;;;;5001145;28;20459;-80
2023/04/07 03:01:11;;;;;;;18.73;13.63;;;9.40;99.90;;;;;;5000734;28;20468;-80
2023/04/07 03:03:38;;;;;;;17.03;13.60;;;9.20;99.90;;;;;;5004449;28;20915;-81
2023/04/07 03:06:06;;;;;;;16.67;13.23;;;9.30;99.90;;;;;;4984433;28;20469;-79
2023/04/07 03:08:33;;;;;;;18.23;14.30;;;9.30;99.90;;;;;;4982294;28;20466;-80
2023/04/07 03:11:00;;;;;;;19.67;15.60;;;9.30;99.90;;;;;;4980848;28;20453;-79
2023/04/07 03:13:28;;;;;;;19.30;14.70;;;9.30;99.90;;;;;;5004614;28;20876;-79
2023/04/07 03:15:56;;;;;;;17.70;13.93;;;9.30;99.90;;;;;;4980842;28;20486;-84
2023/04/07 03:18:23;;;;;;;18.80;14.30;;;9.30;99.90;;;;;;5008050;28;20973;-78
2023/04/07 03:20:51;;;;;;;17.60;14.23;;;9.30;99.90;;;;;;5006480;28;20464;-80
2023/04/07 03:23:18;;;;;;;20.23;14.23;;;9.30;99.90;;;;;;5012066;28;20484;-81
2023/04/07 03:25:45;;;;;;;19.90;16.00;;;9.40;99.90;;;;;;5006696;28;20588;-81
2023/04/07 03:28:12;;;;;;;21.17;16.73;;;9.40;99.90;;;;;;5006430;28;20460;-83
2023/04/07 03:30:39;;;;;;;22.40;17.00;;;9.40;99.90;;;;;;5005426;28;20557;-81
2023/04/07 03:33:07;;;;;;;20.63;16.20;;;9.50;99.90;;;;;;5007046;28;20953;-80
2023/04/07 03:35:34;;;;;;;23.57;16.40;;;9.50;99.90;;;;;;5017534;28;20477;-81
2023/04/07 03:38:01;;;;;;;23.60;17.73;;;9.40;99.90;;;;;;5005231;28;20461;-79
2023/04/07 03:40:27;;;;;;;24.13;17.77;;;9.50;99.90;;;;;;4988056;28;20457;-81
2023/04/07 03:42:54;;;;;;;24.97;18.13;;;9.50;99.90;;;;;;4992119;28;20560;-82
2023/04/07 03:45:21;;;;;;;25.20;18.00;;;9.50;99.90;;;;;;4980780;28;20500;-83
2023/04/07 03:47:48;;;;;;;27.70;20.30;;;9.50;99.90;;;;;;4989813;28;20525;-81
2023/04/07 03:50:16;;;;;;;27.30;18.53;;;9.50;99.90;;;;;;4990715;28;20457;-82
2023/04/07 03:52:43;;;;;;;27.10;17.60;;;9.50;99.90;;;;;;4993084;28;20472;-81
2023/04/07 03:55:10;;;;;;;28.90;19.47;;;9.50;99.90;;;;;;4984112;28;20477;-83
2023/04/07 03:57:37;;;;;;;30.67;18.40;;;9.50;99.90;;;;;;4996891;28;20529;-80
2023/04/07 04:00:05;;;;;;;34.63;19.30;;;9.50;99.90;;;;;;4997615;28;20526;-82
2023/04/07 04:02:32;;;;;;;29.27;18.87;;;9.50;99.90;;;;;;4992467;28;20461;-83
2023/04/07 04:04:59;;;;;;;29.97;18.40;;;9.50;99.90;;;;;;4993593;28;20560;-80
2023/04/07 04:07:27;;;;;;;27.33;16.50;;;9.50;99.90;;;;;;4982902;28;21046;-83
2023/04/07 04:09:53;;;;;;;32.50;20.07;;;9.50;99.90;;;;;;4994489;28;20551;-85
2023/04/07 04:12:20;;;;;;;28.83;19.37;;;9.50;99.90;;;;;;5007520;28;20441;-82
2023/04/07 04:14:47;;;;;;;30.67;19.87;;;9.50;99.90;;;;;;4989214;28;20542;-80
2023/04/07 04:17:14;;;;;;;31.43;20.37;;;9.50;99.90;;;;;;5003392;28;20552;-83
2023/04/07 04:19:41;;;;;;;28.47;17.80;;;9.40;99.90;;;;;;4986633;28;20454;-82
2023/04/07 04:22:07;;;;;;;28.53;18.80;;;9.40;99.90;;;;;;4998525;28;20569;-81
2023/04/07 04:24:36;;;;;;;28.17;18.10;;;9.40;99.90;;;;;;4993433;28;20568;-81
2023/04/07 04:27:02;;;;;;;30.53;19.43;;;9.40;99.90;;;;;;4989137;28;20527;-81
2023/04/07 04:29:29;;;;;;;29.10;18.27;;;9.40;99.90;;;;;;5023294;28;20917;-79
2023/04/07 04:31:56;;;;;;;30.87;19.50;;;9.50;99.90;;;;;;5010408;28;20471;-80
2023/04/07 04:34:23;;;;;;;31.13;20.27;;;9.40;99.90;;;;;;5001360;28;20471;-82
2023/04/07 04:36:50;;;;;;;26.00;18.00;;;9.40;99.90;;;;;;4983068;28;20458;-83
2023/04/07 04:39:17;;;;;;;26.77;16.93;;;9.40;99.90;;;;;;5018729;28;20483;-81
2023/04/07 04:41:45;;;;;;;32.23;20.93;;;9.50;99.90;;;;;;5003445;28;20460;-82
2023/04/07 04:44:12;;;;;;;33.93;19.70;;;9.40;99.90;;;;;;5009547;28;20491;-83
2023/04/07 04:46:39;;;;;;;29.77;19.77;;;9.40;99.90;;;;;;4984468;28;20462;-85
2023/04/07 04:49:06;;;;;;;38.97;22.77;;;9.40;99.90;;;;;;5017393;28;20524;-82
2023/04/07 04:51:33;;;;;;;32.77;19.47;;;9.50;99.90;;;;;;5012205;28;20555;-82
2023/04/07 04:53:59;;;;;;;31.93;19.47;;;9.30;99.90;;;;;;5017716;28;20546;-84
2023/04/07 04:56:26;;;;;;;26.80;18.23;;;9.30;99.90;;;;;;5011053;28;20451;-82
2023/04/07 04:58:54;;;;;;;38.80;22.23;;;9.30;99.90;;;;;;5004737;28;20499;-80
2023/04/07 05:01:21;;;;;;;30.47;20.13;;;9.30;99.90;;;;;;4988074;28;20471;-82
2023/04/07 05:03:48;;;;;;;36.07;20.83;;;9.40;99.90;;;;;;4984264;28;20487;-82
2023/04/07 05:06:15;;;;;;;30.80;20.47;;;9.40;99.90;;;;;;4998243;28;20488;-81
2023/04/07 05:08:41;;;;;;;29.70;21.27;;;9.30;99.90;;;;;;5001407;28;20482;-81
2023/04/07 05:11:08;;;;;;;26.83;17.17;;;9.40;99.90;;;;;;5002425;28;20896;-85
2023/04/07 05:13:35;;;;;;;30.63;18.93;;;9.40;99.90;;;;;;5001060;28;20573;-81
2023/04/07 05:16:04;;;;;;;30.53;19.30;;;9.40;99.90;;;;;;4984160;28;20523;-82
2023/04/07 05:18:30;;;;;;;26.97;18.13;;;9.30;99.90;;;;;;5004040;28;20453;-84
2023/04/07 05:20:57;;;;;;;26.33;19.33;;;9.30;99.90;;;;;;4999927;28;20524;-84
2023/04/07 05:23:24;;;;;;;32.90;21.83;;;9.30;99.90;;;;;;5006550;28;20475;-80
2023/04/07 05:25:51;;;;;;;23.37;17.10;;;9.20;99.90;;;;;;5006419;28;20503;-86
2023/04/07 05:28:18;;;;;;;29.97;21.07;;;9.30;99.90;;;;;;5006154;28;20460;-80
2023/04/07 05:30:45;;;;;;;29.33;18.03;;;9.20;99.90;;;;;;5005514;28;20455;-83
2023/04/07 05:33:13;;;;;;;25.20;18.70;;;9.20;99.90;;;;;;5005937;28;20532;-84
2023/04/07 05:35:40;;;;;;;28.30;18.97;;;9.10;99.90;;;;;;5006399;28;20473;-81
2023/04/07 05:38:07;;;;;;;24.77;18.03;;;9.10;99.90;;;;;;4996008;28;20463;-81
2023/04/07 05:40:34;;;;;;;29.73;19.50;;;9.10;99.90;;;;;;4990297;28;20499;-88
2023/04/07 05:43:00;;;;;;;29.30;18.30;;;9.10;99.90;;;;;;4997330;28;20523;-82
2023/04/07 05:45:27;;;;;;;22.03;15.40;;;9.20;99.90;;;;;;4996340;28;20493;-82
2023/04/07 05:47:54;;;;;;;29.50;17.60;;;9.20;99.90;;;;;;5010086;28;20931;-82
2023/04/07 05:50:22;;;;;;;24.60;16.47;;;9.20;99.90;;;;;;5004864;28;20538;-83
2023/04/07 05:52:49;;;;;;;30.83;19.37;;;9.10;99.90;;;;;;5012763;28;20469;-79
2023/04/07 05:55:16;;;;;;;28.83;17.23;;;9.10;99.90;;;;;;5021319;28;20647;-81
2023/04/07 05:57:43;;;;;;;26.53;17.77;;;9.20;99.90;;;;;;5007049;28;20489;-81
2023/04/07 06:00:11;;;;;;;29.30;16.77;;;9.20;99.90;;;;;;5000926;28;20523;-81
2023/04/07 06:02:38;;;;;;;23.87;15.83;;;9.30;99.90;;;;;;5012891;28;20464;-81
2023/04/07 06:05:06;;;;;;;26.73;16.20;;;9.30;99.90;;;;;;5021321;28;20542;-84
2023/04/07 06:07:34;;;;;;;24.33;15.50;;;9.40;99.90;;;;;;5002304;28;20483;-84
2023/04/07 06:10:02;;;;;;;23.13;14.23;;;9.40;99.90;;;;;;4985639;28;20464;-83
2023/04/07 06:12:29;;;;;;;21.97;12.90;;;9.20;99.90;;;;;;5008157;28;20839;-84
2023/04/07 06:14:56;;;;;;;21.00;13.57;;;9.30;99.90;;;;;;5013100;28;20504;-83
2023/04/07 06:17:23;;;;;;;21.23;15.40;;;9.30;99.90;;;;;;4989281;28;20542;-82
2023/04/07 06:19:50;;;;;;;19.83;14.53;;;9.40;99.90;;;;;;4988648;28;20466;-85
2023/04/07 06:22:17;;;;;;;21.13;14.80;;;9.40;99.90;;;;;;4997463;28;20511;-84
2023/04/07 06:24:45;;;;;;;23.07;15.30;;;9.40;99.90;;;;;;5001919;28;20595;-83
2023/04/07 06:27:12;;;;;;;21.67;15.30;;;9.50;99.90;;;;;;4982338;28;20550;-84
2023/04/07 06:29:38;;;;;;;24.07;15.13;;;9.50;99.90;;;;;;4983541;28;21044;-82
2023/04/07 06:32:06;;;;;;;20.73;13.80;;;9.50;99.90;;;;;;4994598;28;20543;-81
2023/04/07 06:34:33;;;;;;;20.47;12.90;;;9.60;99.90;;;;;;5003650;28;20480;-82
2023/04/07 06:37:00;;;;;;;21.57;13.23;;;9.70;99.90;;;;;;5002517;28;20545;-80
2023/04/07 06:39:27;;;;;;;16.60;12.13;;;9.70;99.90;;;;;;5003272;28;20960;-83
2023/04/07 06:41:56;;;;;;;17.93;11.63;;;9.60;99.90;;;;;;4995647;28;20473;-82
2023/04/07 06:44:23;;;;;;;15.97;11.90;;;9.60;99.90;;;;;;5015079;28;20487;-80
2023/04/07 06:46:52;;;;;;;20.37;13.80;;;9.70;99.90;;;;;;5016646;28;20470;-80
2023/04/07 06:49:19;;;;;;;21.70;13.20;;;9.60;99.90;;;;;;4996681;28;20450;-85
2023/04/07 06:51:45;;;;;;;17.03;12.17;;;9.60;99.90;;;;;;5011835;28;20487;-83
2023/04/07 06:54:13;;;;;;;18.90;13.03;;;9.70;99.90;;;;;;5010488;28;20493;-81
2023/04/07 06:56:40;;;;;;;21.37;14.50;;;9.60;99.90;;;;;;5006066;28;20459;-82
2023/04/07 06:59:09;;;;;;;25.97;15.17;;;9.40;99.90;;;;;;5002760;28;20462;-83
2023/04/07 07:01:36;;;;;;;20.57;14.63;;;9.40;99.90;;;;;;4993331;28;21003;-82
2023/04/07 07:04:04;;;;;;;21.73;13.97;;;9.50;99.90;;;;;;5005837;28;20489;-84
2023/04/07 07:06:31;;;;;;;24.87;14.40;;;9.50;99.90;;;;;;5005495;28;20465;-84
2023/04/07 07:08:58;;;;;;;21.10;14.00;;;9.50;99.90;;;;;;5002819;28;20461;-82
2023/04/07 07:11:26;;;;;;;19.67;13.97;;;9.50;99.90;;;;;;4993672;28;21103;-82
2023/04/07 07:13:52;;;;;;;19.87;13.20;;;9.60;99.90;;;;;;4996251;28;20512;-81
2023/04/07 07:16:22;;;;;;;17.80;12.57;;;9.70;99.90;;;;;;4997520;28;20461;-83
2023/04/07 07:18:49;;;;;;;19.90;13.20;;;9.70;99.90;;;;;;5001192;28;20545;-80
2023/04/07 07:21:17;;;;;;;18.67;12.87;;;9.80;99.90;;;;;;4998284;28;20459;-81
2023/04/07 07:23:44;;;;;;;17.87;11.87;;;9.80;99.90;;;;;;5001097;28;20953;-82
2023/04/07 07:26:11;;;;;;;15.47;10.80;;;9.80;99.90;;;;;;4987159;28;20488;-82
2023/04/07 07:28:38;;;;;;;16.43;11.03;;;9.80;99.90;;;;;;5005584;28;20455;-83
2023/04/07 07:31:11;;;;;;;14.80;10.33;;;9.80;99.90;;;;;;4990433;28;20810;-82
2023/04/07 07:33:40;;;;;;;17.70;11.57;;;9.90;99.90;;;;;;4995488;28;20857;-83
2023/04/07 07:36:07;;;;;;;16.57;10.60;;;9.90;99.90;;;;;;4993710;28;20453;-81
2023/04/07 07:38:34;;;;;;;12.50;8.60;;;9.90;99.90;;;;;;4993717;28;20940;-81
2023/04/07 07:41:01;;;;;;;12.40;9.07;;;9.90;99.90;;;;;;4993325;28;20451;-81
2023/04/07 07:43:28;;;;;;;11.60;8.40;;;9.90;99.90;;;;;;4995073;28;20465;-81
2023/04/07 07:45:55;;;;;;;11.20;7.97;;;10.00;99.90;;;;;;4996611;28;20501;-82
2023/04/07 07:48:22;;;;;;;13.70;8.27;;;10.00;99.90;;;;;;4992603;28;20876;-81
2023/04/07 07:50:51;;;;;;;11.00;8.33;;;10.00;99.90;;;;;;4991337;28;20487;-82
2023/04/07 07:53:18;;;;;;;10.90;7.77;;;10.10;99.90;;;;;;4992910;28;20493;-81
2023/04/07 07:55:46;;;;;;;10.60;7.60;;;10.10;99.90;;;;;;4990332;28;20484;-81
2023/04/07 07:58:12;;;;;;;10.47;6.80;;;10.20;99.90;;;;;;4990302;28;20457;-81
2023/04/07 08:00:39;;;;;;;12.03;8.53;;;10.20;99.90;;;;;;4992403;28;20965;-82
2023/04/07 08:03:06;;;;;;;13.43;7.73;;;10.30;99.90;;;;;;4991213;28;20456;-82
2023/04/07 08:05:33;;;;;;;10.60;6.10;;;10.20;99.90;;;;;;4992907;28;20578;-82
2023/04/07 08:08:01;;;;;;;10.77;6.80;;;10.20;99.90;;;;;;4992787;28;20837;-80
2023/04/07 08:10:28;;;;;;;9.63;7.00;;;10.20;99.90;;;;;;4992203;28;20459;-79
2023/04/07 08:12:55;;;;;;;9.10;6.10;;;10.30;99.90;;;;;;4991662;28;20842;-80
2023/04/07 08:15:22;;;;;;;11.90;7.20;;;10.30;99.90;;;;;;4990364;28;20479;-83
2023/04/07 08:17:49;;;;;;;9.13;6.17;;;10.30;99.90;;;;;;4991164;28;20551;-81
2023/04/07 08:20:16;;;;;;;8.87;6.37;;;10.30;99.90;;;;;;4994046;28;20461;-82
2023/04/07 08:22:43;;;;;;;9.40;6.70;;;10.30;99.90;;;;;;4990640;28;20456;-83
2023/04/07 08:25:11;;;;;;;13.50;7.20;;;10.30;99.90;;;;;;4991520;28;20496;-83
2023/04/07 08:27:38;;;;;;;11.73;6.80;;;10.30;99.90;;;;;;4993546;28;20460;-82
2023/04/07 08:30:06;;;;;;;8.10;6.03;;;10.40;99.90;;;;;;4995263;28;20468;-83
2023/04/07 08:32:37;;;;;;;12.30;7.43;;;10.40;99.90;;;;;;4991634;28;20460;-83
2023/04/07 08:35:05;;;;;;;8.70;6.50;;;10.40;99.90;;;;;;4990377;28;20496;-81
2023/04/07 08:37:33;;;;;;;10.27;7.10;;;10.40;99.90;;;;;;4993432;28;20468;-81
2023/04/07 08:39:59;;;;;;;8.33;6.20;;;10.50;99.90;;;;;;4995384;28;20958;-79
2023/04/07 08:42:37;;;;;;;10.03;6.47;;;10.50;99.90;;;;;;4986313;28;20463;-81
2023/04/07 08:45:06;;;;;;;10.77;7.90;;;10.50;99.90;;;;;;4989097;28;20497;-82
2023/04/07 08:47:34;;;;;;;9.20;6.60;;;10.40;99.90;;;;;;4995933;28;20457;-80
2023/04/07 08:50:03;;;;;;;10.80;6.77;;;10.50;99.90;;;;;;4995184;28;20468;-82
2023/04/07 08:52:35;;;;;;;11.03;7.60;;;10.50;99.90;;;;;;5002090;28;20495;-80
2023/04/07 08:55:05;;;;;;;8.73;6.80;;;10.50;99.90;;;;;;5003065;28;20481;-81
2023/04/07 08:57:34;;;;;;;12.27;8.00;;;10.60;99.90;;;;;;5001186;28;20461;-81
2023/04/07 09:00:04;;;;;;;11.47;8.60;;;10.60;99.90;;;;;;4999177;28;20458;-81
2023/04/07 09:02:32;;;;;;;11.13;7.00;;;10.70;99.90;;;;;;4991151;28;20708;-82
2023/04/07 09:04:59;;;;;;;9.20;6.90;;;10.60;99.90;;;;;;4994731;28;20576;-82
2023/04/07 09:07:26;;;;;;;9.57;6.60;;;10.60;99.90;;;;;;5009817;28;20487;-82
2023/04/07 09:09:53;;;;;;;12.10;7.90;;;10.60;99.90;;;;;;4994542;28;20464;-83
2023/04/07 09:12:20;;;;;;;10.57;7.67;;;10.70;99.90;;;;;;4999191;28;20547;-82
2023/04/07 09:14:48;;;;;;;11.17;7.73;;;10.70;99.90;;;;;;5000023;28;20568;-81
2023/04/07 09:17:15;;;;;;;9.73;7.40;;;10.70;99.90;;;;;;4997449;28;20907;-82
2023/04/07 09:19:42;;;;;;;9.17;6.33;;;10.70;99.90;;;;;;4994055;28;20460;-81
2023/04/07 09:22:11;;;;;;;10.20;8.07;;;10.60;99.90;;;;;;4992008;28;20465;-81
2023/04/07 09:24:38;;;;;;;11.20;7.53;;;10.50;99.90;;;;;;4996248;28;20498;-80
2023/04/07 09:27:12;;;;;;;6.57;4.83;;;10.30;99.90;;;;;;4999219;28;20453;-84
2023/04/07 09:29:41;;;;;;;8.07;5.97;;;10.30;99.90;;;;;;4998193;28;20459;-83
2023/04/07 09:32:11;;;;;;;7.03;4.50;;;10.20;99.90;;;;;;4996167;28;20455;-80
2023/04/07 09:34:39;;;;;;;6.93;4.67;;;10.30;99.90;;;;;;4999751;28;20474;-82
2023/04/07 09:37:08;;;;;;;8.40;5.53;;;10.20;99.90;;;;;;4988785;28;20469;-83
2023/04/07 09:39:49;;;;;;;13.23;6.80;;;10.20;99.90;;;;;;4983696;28;20497;-82
2023/04/07 09:42:16;;;;;;;8.90;5.80;;;10.20;99.90;;;;;;4978238;28;20470;-81
2023/04/07 09:44:44;;;;;;;8.83;6.20;;;10.40;99.90;;;;;;4981187;28;20589;-82
2023/04/07 09:47:12;;;;;;;8.80;7.90;;;10.40;99.90;;;;;;5020364;28;20539;-81
2023/04/07 09:49:51;;;;;;;5.90;5.07;;;10.40;99.90;;;;;;4990881;28;20463;-82
2023/04/07 09:52:19;;;;;;;8.97;5.10;;;10.50;99.90;;;;;;4992541;28;21003;-83
2023/04/07 09:54:47;;;;;;;6.50;4.40;;;10.50;99.90;;;;;;4993180;28;20879;-82
2023/04/07 09:57:16;;;;;;;7.87;4.90;;;10.60;99.90;;;;;;4997487;28;20446;-82
2023/04/07 09:59:43;;;;;;;7.87;5.70;;;10.60;99.90;;;;;;4997880;28;20488;-82
2023/04/07 10:02:12;;;;;;;11.17;6.87;;;10.70;99.90;;;;;;4987952;28;20980;-83
2023/04/07 10:04:40;;;;;;;10.33;7.50;;;10.80;99.90;;;;;;4989619;28;20471;-81
2023/04/07 10:07:07;;;;;;;11.77;7.83;;;10.80;99.90;;;;;;4996879;28;20480;-83
2023/04/07 10:09:34;;;;;;;9.10;6.60;;;10.80;99.90;;;;;;4988454;28;20987;-82
2023/04/07 10:12:01;;;;;;;10.03;6.97;;;10.80;99.90;;;;;;4994083;28;20456;-82
2023/04/07 10:14:30;;;;;;;9.20;6.00;;;10.60;99.90;;;;;;4992358;28;20584;-82
2023/04/07 10:16:58;;;;;;;10.03;7.40;;;10.70;99.90;;;;;;4993977;28;20459;-83
2023/04/07 10:19:29;;;;;;;8.80;6.43;;;10.50;99.90;;;;;;4992071;28;20456;-82
2023/04/07 10:21:57;;;;;;;8.80;5.87;;;10.50;99.90;;;;;;4992283;28;20459;-82
2023/04/07 10:24:38;;;;;;;8.50;5.20;;;10.50;99.90;;;;;;4993035;28;20485;-81
2023/04/07 10:27:07;;;;;;;10.90;6.80;;;10.50;99.90;;;;;;4990491;28;20485;-82
2023/04/07 10:29:37;;;;;;;8.03;6.37;;;10.50;99.90;;;;;;5003954;28;20500;-82
2023/04/07 10:32:04;;;;;;;9.10;6.23;;;10.60;99.90;;;;;;5000072;28;20454;-81
2023/04/07 10:34:59;;;;;;;8.80;6.47;;;10.60;99.90;;;;;;5001167;28;20481;-81
2023/04/07 10:37:27;;;;;;;9.97;6.47;;;10.50;99.90;;;;;;5005748;28;20450;-83
2023/04/07 10:40:28;;;;;;;7.60;5.30;;;10.50;99.90;;;;;;5014372;28;20480;-83
2023/04/07 10:42:56;;;;;;;8.80;5.33;;;10.60;99.90;;;;;;5004797;28;20500;-83
2023/04/07 10:46:02;;;;;;;6.03;4.17;;;10.60;99.90;;;;;;5004913;28;20516;-82
2023/04/07 10:48:31;;;;;;;4.27;3.60;;;10.70;99.90;;;;;;4986878;28;20462;-83
2023/04/07 10:51:24;;;;;;;5.90;3.73;;;10.90;99.90;;;;;;5005119;28;20512;-84
2023/04/07 10:54:19;;;;;;;4.43;2.60;;;10.90;99.90;;;;;;5002417;28;20905;-85
2023/04/07 10:57:20;;;;;;;5.47;3.77;;;11.00;99.90;;;;;;4998801;28;20431;-82
2023/04/07 11:00:15;;;;;;;5.00;3.47;;;11.20;99.90;;;;;;5001076;28;20515;-82
2023/04/07 11:02:42;;;;;;;5.20;4.10;;;11.30;99.90;;;;;;4998760;28;20462;-82
2023/04/07 11:05:19;;;;;;;5.00;3.63;;;11.30;99.90;;;;;;4997060;28;20477;-81
2023/04/07 11:07:50;;;;;;;5.40;4.40;;;11.40;99.90;;;;;;4989506;28;20468;-80
2023/04/07 11:10:18;;;;;;;5.47;4.00;;;11.30;99.90;;;;;;4994388;28;20477;-84
2023/04/07 11:12:58;;;;;;;7.90;6.10;;;11.40;99.90;;;;;;4999284;28;20512;-83
2023/04/07 11:15:25;;;;;;;7.97;7.10;;;11.10;99.90;;;;;;4980764;28;20875;-83
2023/04/07 11:18:13;;;;;;;9.47;5.70;;;11.00;99.90;;;;;;4993026;28;20504;-83
2023/04/07 11:20:48;;;;;;;9.90;6.90;;;10.90;99.90;;;;;;4997143;28;20526;-82
2023/04/07 11:23:18;;;;;;;7.93;6.63;;;10.60;99.90;;;;;;4999506;28;20454;-82
2023/04/07 11:25:47;;;;;;;10.87;7.80;;;10.50;99.90;;;;;;4996720;28;20495;-82
2023/04/07 11:28:15;;;;;;;8.73;7.10;;;10.40;99.90;;;;;;4995442;28;20820;-82
2023/04/07 11:30:48;;;;;;;10.60;7.57;;;10.30;99.90;;;;;;4996805;28;20523;-81
2023/04/07 11:33:16;;;;;;;10.90;8.23;;;10.20;99.90;;;;;;4996821;28;20452;-82
2023/04/07 11:35:51;;;;;;;7.47;6.27;;;10.20;99.90;;;;;;4996477;28;20817;-83
2023/04/07 11:38:21;;;;;;;10.27;8.27;;;10.20;99.90;;;;;;4977465;28;20459;-84
2023/04/07 11:40:47;;;;;;;8.70;7.73;;;10.20;99.90;;;;;;4992882;28;21318;-81
2023/04/07 11:43:22;;;;;;;7.90;6.80;;;10.40;99.90;;;;;;4996919;28;20453;-81
2023/04/07 11:46:07;;;;;;;7.27;5.80;;;10.20;99.90;;;;;;5002873;28;20506;-81
2023/04/07 11:48:35;;;;;;;9.13;6.67;;;10.20;99.90;;;;;;5004785;28;20482;-81
2023/04/07 11:51:03;;;;;;;9.07;6.47;;;10.20;99.90;;;;;;5000311;28;20982;-81
2023/04/07 11:53:33;;;;;;;9.60;6.93;;;10.30;99.90;;;;;;5015876;28;20460;-82
2023/04/07 11:56:02;;;;;;;7.50;6.23;;;10.30;99.90;;;;;;5004711;28;20563;-81
2023/04/07 11:58:29;;;;;;;7.50;6.77;;;10.40;99.90;;;;;;5011517;28;20480;-80
2023/04/07 12:00:56;;;;;;;7.07;6.30;;;10.50;99.90;;;;;;4998154;28;20447;-80
2023/04/07 12:03:23;;;;;;;9.77;6.63;;;10.50;99.90;;;;;;4997467;28;20465;-83
2023/04/07 12:05:51;;;;;;;6.80;6.07;;;10.70;99.90;;;;;;4985895;28;20499;-81
2023/04/07 12:08:18;;;;;;;9.40;6.53;;;10.60;99.90;;;;;;5004094;28;20454;-82
2023/04/07 12:10:47;;;;;;;7.87;7.00;;;10.80;99.90;;;;;;4998967;28;20481;-81
2023/04/07 12:13:14;;;;;;;9.50;6.30;;;10.70;99.90;;;;;;4998216;28;20472;-81
2023/04/07 12:15:41;;;;;;;9.97;7.20;;;10.70;99.90;;;;;;4997300;28;20483;-81
2023/04/07 12:18:08;;;;;;;16.47;14.90;;;10.70;99.90;;;;;;5003703;28;20543;-82
2023/04/07 12:20:35;;;;;;;10.57;9.47;;;10.50;99.90;;;;;;4987670;28;20496;-79
2023/04/07 12:23:01;;;;;;;16.30;13.37;;;10.70;99.90;;;;;;4992745;28;20475;-81
2023/04/07 12:25:28;;;;;;;11.50;10.40;;;10.40;99.90;;;;;;4996150;28;20845;-82
2023/04/07 12:27:56;;;;;;;12.13;10.57;;;10.60;99.90;;;;;;4998406;28;20461;-82
2023/04/07 12:30:23;;;;;;;9.77;8.80;;;10.40;99.90;;;;;;5002897;28;20456;-81
2023/04/07 12:32:50;;;;;;;9.83;8.83;;;10.50;99.90;;;;;;4998068;28;20985;-82
2023/04/07 12:35:17;;;;;;;10.90;8.37;;;10.50;99.90;;;;;;4999674;28;20477;-81
2023/04/07 12:37:45;;;;;;;9.83;8.67;;;10.40;99.90;;;;;;4999792;28;21011;-81
2023/04/07 12:40:12;;;;;;;10.90;9.63;;;10.50;99.90;;;;;;5012344;28;20518;-81
2023/04/07 12:42:39;;;;;;;9.63;8.67;;;10.30;99.90;;;;;;5002041;28;20542;-80
2023/04/07 12:45:08;;;;;;;9.80;8.80;;;10.10;99.90;;;;;;5005374;28;20546;-82
2023/04/07 12:47:35;;;;;;;11.30;9.33;;;10.30;99.90;;;;;;5000918;28;20576;-80
2023/04/07 12:50:02;;;;;;;10.00;8.10;;;10.50;99.90;;;;;;4995179;28;20483;-80